Genoa, New York
Current Conditions -  °F | °C
As of 2:56 PM on Monday 26 Jan 2015 (Local Time) from KITH Reporting Station
Light Snow Light Snow  
Wind Chill: 11°   Ceiling: 2600
Heat Index: 18°   Visibility: 1.5mi
Dew Point: 13°   Wind: 5mph
Humidity: 81%   Direction: 60°ENE
Pressure: 29.86"   Gusts: NA
Location:  42.67°N, 76.54°W
Report Text: KITH 261956Z 06004KT 1 1/2SM -SN OVC026 M08/M11 A2986 RMK AO2 T10771105 P0000 SLP136
Loading
Personal Weather Stations






























Interactive Weather Map New forecast layout! Learn more

10-Day Weather Forecast

Advertisements
Track Severe Weather on mobile